Ever Develop — 3FLF8 — position and weather

sailwx.info

Track history (hours):
 
Tides and Currents Weather Stations Pressure Air Temp Water Temp Dewpoint Dewpoint Depression Visibility Wind Speed Wind Dir Waves Ship Positions

Ever Develop

Last reported at 2014-Nov-07 18:26 UTC. Time now 2014-Nov-22 21:30 UTC.
Position N 39°32' W 072°51'.
Warning: this ship's position is 15 days out of date.

Type: Ship (hazmat cat D). MMSI: 356391000.

Date/timePositionNaut miles runAvg speedWind from/ knotsBaromVisibWave heightAir tempDewpointWater temp
2014-Nov-07 18:26N 39°32' W 072°51'1415.7
2014-Nov-07 17:32N 39°42' W 073°03'1615.8
2014-Nov-07 16:31N 39°55' W 073°16'2015.8
2014-Nov-07 15:15N 40°11' W 073°32'1011.2
2014-Nov-07 14:24N 40°18' W 073°40'9 9.6
2014-Nov-07 13:30N 40°25' W 073°47'9 9.5
2014-Nov-07 12:33N 40°30' W 073°57'1110.7
2014-Nov-07 11:33N 40°39' W 074°05'3 2.9
2014-Nov-07 10:33N 40°40' W 074°08'1 0.9
2014-Nov-07 09:33N 40°41' W 074°09'0 0.0
2014-Nov-07 08:30N 40°41' W 074°09'0 0.0
2014-Nov-07 07:30N 40°41' W 074°09'0 0.0
2014-Nov-07 06:30N 40°41' W 074°09'0 0.0
2014-Nov-07 05:33N 40°41' W 074°09'0 0.0
2014-Nov-07 04:30N 40°41' W 074°09'0 0.0
2014-Nov-07 03:33N 40°41' W 074°09'0 0.0
2014-Nov-07 02:33N 40°41' W 074°09'0 0.0
2014-Nov-07 01:27N 40°41' W 074°09'0 0.0
2014-Nov-07 00:33N 40°41' W 074°09'0 0.0
2014-Nov-06 23:33N 40°41' W 074°09'0 0.0
2014-Nov-06 22:33N 40°41' W 074°09'0 0.0
2014-Nov-06 21:33N 40°41' W 074°09'0 0.0
2014-Nov-06 20:33N 40°41' W 074°09'0 0.0
2014-Nov-06 19:33N 40°41' W 074°09'0 0.0
2014-Nov-06 18:33N 40°41' W 074°09'0 0.0
2014-Nov-06 17:34N 40°41' W 074°09'2 2.0
2014-Nov-06 16:34N 40°39' W 074°09'5 5.1
2014-Nov-06 15:33N 40°37' W 074°03'1010.3
2014-Nov-06 14:34N 40°29' W 073°54'9 8.2
2014-Nov-06 13:29N 40°23' W 073°46'18 9.1
2014-Nov-06 11:32N 40°05' W 073°44'1212.6
2014-Nov-06 10:33N 39°53' W 073°42'1110.5
2014-Nov-06 09:33N 39°42' W 073°42'6 5.6
2014-Nov-06 08:33N 39°37' W 073°45'1513.9
2014-Nov-06 07:28N 39°23' W 073°52'191 7.0
2014-Nov-05 04:21N 36°52' W 076°21'3 4.2
2014-Nov-05 03:33N 36°56' W 076°20'1210.7
2014-Nov-05 02:26N 36°58' W 076°06'4 4.1
2014-Nov-05 01:33N 37°01' W 076°03'2914.7
2014-Nov-04 23:34N 37°30' W 076°03'2116.2
2014-Nov-04 22:17N 37°50' W 076°10'1419.6
2014-Nov-04 21:33N 38°05' W 076°13'2019.8
2014-Nov-04 20:34N 38°23' W 076°20'1918.7
2014-Nov-04 19:34N 38°41' W 076°26'1817.8
2014-Nov-04 18:33N 38°59' W 076°23'1212.5
2014-Nov-04 17:33N 39°11' W 076°28'6 6.0
2014-Nov-04 16:33N 39°15' W 076°33'0 0.0
2014-Nov-04 15:33N 39°15' W 076°33'0 0.0
2014-Nov-04 14:33N 39°15' W 076°33'0 0.0
2014-Nov-04 13:32N 39°15' W 076°33'0 0.0
2014-Nov-04 12:33N 39°15' W 076°33'0 0.0
2014-Nov-04 11:30N 39°15' W 076°33'0 0.0
2014-Nov-04 10:33N 39°15' W 076°33'0 0.0
2014-Nov-04 09:33N 39°15' W 076°33'0 0.0
2014-Nov-04 08:33N 39°15' W 076°33'0 0.0
2014-Nov-04 07:32N 39°15' W 076°33'0 0.0
2014-Nov-04 06:33N 39°15' W 076°33'0 0.0
2014-Nov-04 05:33N 39°15' W 076°33'0 0.0
2014-Nov-04 04:33N 39°15' W 076°33'0 0.0
2014-Nov-04 03:33N 39°15' W 076°33'0 0.0
2014-Nov-04 02:33N 39°15' W 076°33'0 0.0
2014-Nov-04 01:33N 39°15' W 076°33'0 0.0
2014-Nov-04 00:33N 39°15' W 076°33'1 0.6
2014-Nov-03 23:33N 39°15' W 076°33'6 5.7
2014-Nov-03 22:33N 39°11' W 076°27'1413.6
2014-Nov-03 21:34N 38°58' W 076°23'4219.4
2014-Nov-03 19:25N 38°16' W 076°17'1220.4
2014-Nov-03 18:49N 38°05' W 076°13'620.4
2014-Nov-03 18:30N 37°59' W 076°11'619.0
2014-Nov-03 18:12N 37°53' W 076°09'  
Track history (hours):
 
Tides and Currents Weather Stations Pressure Air Temp Water Temp Dewpoint Dewpoint Depression Visibility Wind Speed Wind Dir Waves Ship Positions

Ever Develop

Last reported at 2014-Nov-07 18:26 UTC. Time now 2014-Nov-22 21:30 UTC.
Position N 39°32' W 072°51'.
Warning: this ship's position is 15 days out of date.

Type: Ship (hazmat cat D). MMSI: 356391000.

Date/timePositionNaut miles runAvg speedWind from/ knotsBaromVisibWave heightAir tempDewpointWater temp
2014-Nov-07 18:26N 39°32' W 072°51'1415.7
2014-Nov-07 17:32N 39°42' W 073°03'1615.8
2014-Nov-07 16:31N 39°55' W 073°16'2015.8
2014-Nov-07 15:15N 40°11' W 073°32'1011.2
2014-Nov-07 14:24N 40°18' W 073°40'9 9.6
2014-Nov-07 13:30N 40°25' W 073°47'9 9.5
2014-Nov-07 12:33N 40°30' W 073°57'1110.7
2014-Nov-07 11:33N 40°39' W 074°05'3 2.9
2014-Nov-07 10:33N 40°40' W 074°08'1 0.9
2014-Nov-07 09:33N 40°41' W 074°09'0 0.0
2014-Nov-07 08:30N 40°41' W 074°09'0 0.0
2014-Nov-07 07:30N 40°41' W 074°09'0 0.0
2014-Nov-07 06:30N 40°41' W 074°09'0 0.0
2014-Nov-07 05:33N 40°41' W 074°09'0 0.0
2014-Nov-07 04:30N 40°41' W 074°09'0 0.0
2014-Nov-07 03:33N 40°41' W 074°09'0 0.0
2014-Nov-07 02:33N 40°41' W 074°09'0 0.0
2014-Nov-07 01:27N 40°41' W 074°09'0 0.0
2014-Nov-07 00:33N 40°41' W 074°09'0 0.0
2014-Nov-06 23:33N 40°41' W 074°09'0 0.0
2014-Nov-06 22:33N 40°41' W 074°09'0 0.0
2014-Nov-06 21:33N 40°41' W 074°09'0 0.0
2014-Nov-06 20:33N 40°41' W 074°09'0 0.0
2014-Nov-06 19:33N 40°41' W 074°09'0 0.0
2014-Nov-06 18:33N 40°41' W 074°09'0 0.0
2014-Nov-06 17:34N 40°41' W 074°09'2 2.0
2014-Nov-06 16:34N 40°39' W 074°09'5 5.1
2014-Nov-06 15:33N 40°37' W 074°03'1010.3
2014-Nov-06 14:34N 40°29' W 073°54'9 8.2
2014-Nov-06 13:29N 40°23' W 073°46'18 9.1
2014-Nov-06 11:32N 40°05' W 073°44'1212.6
2014-Nov-06 10:33N 39°53' W 073°42'1110.5
2014-Nov-06 09:33N 39°42' W 073°42'6 5.6
2014-Nov-06 08:33N 39°37' W 073°45'1513.9
2014-Nov-06 07:28N 39°23' W 073°52'191 7.0
2014-Nov-05 04:21N 36°52' W 076°21'3 4.2
2014-Nov-05 03:33N 36°56' W 076°20'1210.7
2014-Nov-05 02:26N 36°58' W 076°06'4 4.1
2014-Nov-05 01:33N 37°01' W 076°03'2914.7
2014-Nov-04 23:34N 37°30' W 076°03'2116.2
2014-Nov-04 22:17N 37°50' W 076°10'1419.6
2014-Nov-04 21:33N 38°05' W 076°13'2019.8
2014-Nov-04 20:34N 38°23' W 076°20'1918.7
2014-Nov-04 19:34N 38°41' W 076°26'1817.8
2014-Nov-04 18:33N 38°59' W 076°23'1212.5
2014-Nov-04 17:33N 39°11' W 076°28'6 6.0
2014-Nov-04 16:33N 39°15' W 076°33'0 0.0
2014-Nov-04 15:33N 39°15' W 076°33'0 0.0
2014-Nov-04 14:33N 39°15' W 076°33'0 0.0
2014-Nov-04 13:32N 39°15' W 076°33'0 0.0
2014-Nov-04 12:33N 39°15' W 076°33'0 0.0
2014-Nov-04 11:30N 39°15' W 076°33'0 0.0
2014-Nov-04 10:33N 39°15' W 076°33'0 0.0
2014-Nov-04 09:33N 39°15' W 076°33'0 0.0
2014-Nov-04 08:33N 39°15' W 076°33'0 0.0
2014-Nov-04 07:32N 39°15' W 076°33'0 0.0
2014-Nov-04 06:33N 39°15' W 076°33'0 0.0
2014-Nov-04 05:33N 39°15' W 076°33'0 0.0
2014-Nov-04 04:33N 39°15' W 076°33'0 0.0
2014-Nov-04 03:33N 39°15' W 076°33'0 0.0
2014-Nov-04 02:33N 39°15' W 076°33'0 0.0
2014-Nov-04 01:33N 39°15' W 076°33'0 0.0
2014-Nov-04 00:33N 39°15' W 076°33'1 0.6
2014-Nov-03 23:33N 39°15' W 076°33'6 5.7
2014-Nov-03 22:33N 39°11' W 076°27'1413.6
2014-Nov-03 21:34N 38°58' W 076°23'4219.4
2014-Nov-03 19:25N 38°16' W 076°17'1220.4
2014-Nov-03 18:49N 38°05' W 076°13'620.4
2014-Nov-03 18:30N 37°59' W 076°11'619.0
2014-Nov-03 18:12N 37°53' W 076°09'  

Dump ship's entire track history